createdAt,value
2018-03-22T09:13:35.296Z,48.95
2018-03-22T09:16:01.574Z,47.18
2018-03-22T09:18:28.475Z,45.62
2018-03-22T09:20:54.768Z,44.41
2018-03-22T09:23:21.730Z,43.49
2018-03-22T09:25:48.070Z,42.68
2018-03-22T09:28:14.395Z,42.22
2018-03-22T09:30:40.685Z,41.76
2018-03-22T09:33:06.978Z,41.41
2018-03-22T09:35:33.881Z,40.98
2018-03-22T09:38:00.181Z,40.66
2018-03-22T09:40:27.381Z,40.46
2018-03-22T09:42:53.635Z,40.29
2018-03-22T09:45:19.970Z,40.16
2018-03-22T09:47:46.270Z,40.24
2018-03-22T09:50:12.546Z,39.96
2018-03-22T09:52:38.821Z,39.98
2018-03-22T09:55:05.148Z,40.14
2018-03-22T09:57:31.950Z,40.05
2018-03-22T09:59:58.206Z,40.12
2018-03-22T10:02:24.679Z,39.92
2018-03-22T10:04:51.221Z,39.74
2018-03-22T10:07:18.356Z,39.75
2018-03-22T10:09:45.512Z,39.57
2018-03-22T10:12:12.049Z,39.72
2018-03-22T10:14:38.329Z,39.59
2018-03-22T10:17:04.591Z,39.51
2018-03-22T10:19:30.892Z,39.57
2018-03-22T10:21:57.832Z,39.49
2018-03-22T10:24:24.106Z,39.43
2018-03-22T10:26:50.647Z,39.43
2018-03-22T10:29:16.968Z,39.48
2018-03-22T10:31:43.513Z,39.64
2018-03-22T10:34:09.795Z,39.46
2018-03-22T10:36:36.721Z,39.29
2018-03-22T10:39:03.634Z,39.40
2018-03-22T10:41:29.899Z,39.51
2018-03-22T10:43:57.566Z,39.47
2018-03-22T10:46:23.888Z,39.57
2018-03-22T10:48:50.649Z,39.46
2018-03-22T10:51:17.183Z,39.49
2018-03-22T10:53:43.662Z,39.43
2018-03-22T10:56:09.956Z,39.40
2018-03-22T10:58:36.238Z,39.28
2018-03-22T11:01:08.579Z,39.32
2018-03-22T11:03:41.171Z,39.38
2018-03-22T11:06:07.747Z,39.38
2018-03-22T11:08:34.028Z,39.41
2018-03-22T11:11:00.316Z,39.36
2018-03-22T11:13:26.800Z,39.29
2018-03-22T11:15:53.108Z,39.31
2018-03-22T11:18:19.540Z,39.42
2018-03-22T11:20:45.852Z,39.30
2018-03-22T11:23:12.113Z,39.23
2018-03-22T11:25:38.398Z,39.23
2018-03-22T11:28:05.339Z,39.21
2018-03-22T11:30:31.939Z,39.15
2018-03-22T11:32:58.236Z,39.18
2018-03-22T11:35:25.471Z,39.35
